sensor_id;sensor_type;location;lat;lon;timestamp;P1;durP1;ratioP1;P2;durP2;ratioP2
51686;SDS011;37774;52.192;4.584;2022-08-19T00:01:26;10.23;;;6.20;;
51686;SDS011;37774;52.192;4.584;2022-08-19T00:03:55;15.10;;;7.15;;
51686;SDS011;37774;52.192;4.584;2022-08-19T00:06:22;11.77;;;6.95;;
51686;SDS011;37774;52.192;4.584;2022-08-19T00:08:48;15.68;;;8.18;;
51686;SDS011;37774;52.192;4.584;2022-08-19T00:11:16;16.20;;;9.02;;
51686;SDS011;37774;52.192;4.584;2022-08-19T00:13:43;17.58;;;8.07;;
51686;SDS011;37774;52.192;4.584;2022-08-19T00:16:12;12.77;;;7.47;;
51686;SDS011;37774;52.192;4.584;2022-08-19T00:18:38;14.98;;;9.25;;
51686;SDS011;37774;52.192;4.584;2022-08-19T00:21:05;15.27;;;8.50;;
51686;SDS011;37774;52.192;4.584;2022-08-19T00:23:34;23.75;;;9.45;;
51686;SDS011;37774;52.192;4.584;2022-08-19T00:26:02;15.77;;;8.45;;
51686;SDS011;37774;52.192;4.584;2022-08-19T00:28:29;18.67;;;8.82;;
51686;SDS011;37774;52.192;4.584;2022-08-19T00:30:56;19.73;;;8.55;;
51686;SDS011;37774;52.192;4.584;2022-08-19T00:33:24;15.27;;;9.13;;
51686;SDS011;37774;52.192;4.584;2022-08-19T00:35:51;19.40;;;9.63;;
51686;SDS011;37774;52.192;4.584;2022-08-19T00:38:18;16.83;;;9.10;;
51686;SDS011;37774;52.192;4.584;2022-08-19T00:40:47;20.17;;;9.90;;
51686;SDS011;37774;52.192;4.584;2022-08-19T00:43:17;19.30;;;10.02;;
51686;SDS011;37774;52.192;4.584;2022-08-19T00:45:47;14.15;;;8.98;;
51686;SDS011;37774;52.192;4.584;2022-08-19T00:48:15;17.20;;;8.90;;
51686;SDS011;37774;52.192;4.584;2022-08-19T00:50:44;14.93;;;9.45;;
51686;SDS011;37774;52.192;4.584;2022-08-19T00:53:14;22.52;;;9.75;;
51686;SDS011;37774;52.192;4.584;2022-08-19T00:55:44;20.23;;;9.45;;
51686;SDS011;37774;52.192;4.584;2022-08-19T00:58:15;16.23;;;9.55;;
51686;SDS011;37774;52.192;4.584;2022-08-19T01:00:43;18.10;;;9.50;;
51686;SDS011;37774;52.192;4.584;2022-08-19T01:03:11;21.75;;;9.48;;
51686;SDS011;37774;52.192;4.584;2022-08-19T01:05:46;15.98;;;9.23;;
51686;SDS011;37774;52.192;4.584;2022-08-19T01:08:15;15.88;;;8.70;;
51686;SDS011;37774;52.192;4.584;2022-08-19T01:10:45;18.15;;;9.70;;
51686;SDS011;37774;52.192;4.584;2022-08-19T01:13:14;14.93;;;9.52;;
51686;SDS011;37774;52.192;4.584;2022-08-19T01:15:42;14.70;;;8.75;;
51686;SDS011;37774;52.192;4.584;2022-08-19T01:18:13;21.40;;;9.20;;
51686;SDS011;37774;52.192;4.584;2022-08-19T01:20:43;23.33;;;10.30;;
51686;SDS011;37774;52.192;4.584;2022-08-19T01:23:12;15.77;;;8.90;;
51686;SDS011;37774;52.192;4.584;2022-08-19T01:25:41;19.10;;;9.40;;
51686;SDS011;37774;52.192;4.584;2022-08-19T01:28:14;19.90;;;9.65;;
51686;SDS011;37774;52.192;4.584;2022-08-19T01:30:44;20.08;;;10.20;;
51686;SDS011;37774;52.192;4.584;2022-08-19T01:33:11;15.32;;;9.18;;
51686;SDS011;37774;52.192;4.584;2022-08-19T01:35:39;20.23;;;10.45;;
51686;SDS011;37774;52.192;4.584;2022-08-19T01:38:08;21.25;;;9.52;;
51686;SDS011;37774;52.192;4.584;2022-08-19T01:40:39;23.25;;;9.82;;
51686;SDS011;37774;52.192;4.584;2022-08-19T01:43:07;16.63;;;9.32;;
51686;SDS011;37774;52.192;4.584;2022-08-19T01:45:34;27.13;;;9.95;;
51686;SDS011;37774;52.192;4.584;2022-08-19T01:48:02;22.23;;;10.38;;
51686;SDS011;37774;52.192;4.584;2022-08-19T01:50:30;21.83;;;11.80;;
51686;SDS011;37774;52.192;4.584;2022-08-19T01:52:59;18.67;;;10.65;;
51686;SDS011;37774;52.192;4.584;2022-08-19T01:55:27;24.73;;;10.70;;
51686;SDS011;37774;52.192;4.584;2022-08-19T01:57:55;22.70;;;10.85;;
51686;SDS011;37774;52.192;4.584;2022-08-19T02:00:25;23.20;;;11.45;;
51686;SDS011;37774;52.192;4.584;2022-08-19T02:02:54;25.10;;;11.60;;
51686;SDS011;37774;52.192;4.584;2022-08-19T02:05:21;19.90;;;9.48;;
51686;SDS011;37774;52.192;4.584;2022-08-19T02:07:48;23.98;;;11.77;;
51686;SDS011;37774;52.192;4.584;2022-08-19T02:10:17;26.60;;;11.52;;
51686;SDS011;37774;52.192;4.584;2022-08-19T02:12:46;34.03;;;11.77;;
51686;SDS011;37774;52.192;4.584;2022-08-19T02:15:15;26.02;;;13.25;;
51686;SDS011;37774;52.192;4.584;2022-08-19T02:17:44;23.98;;;12.38;;
51686;SDS011;37774;52.192;4.584;2022-08-19T02:20:11;24.10;;;11.68;;
51686;SDS011;37774;52.192;4.584;2022-08-19T02:22:38;20.45;;;11.52;;
51686;SDS011;37774;52.192;4.584;2022-08-19T02:25:06;25.73;;;11.60;;
51686;SDS011;37774;52.192;4.584;2022-08-19T02:27:35;25.75;;;11.90;;
51686;SDS011;37774;52.192;4.584;2022-08-19T02:30:02;25.92;;;12.25;;
51686;SDS011;37774;52.192;4.584;2022-08-19T02:32:31;31.38;;;13.10;;
51686;SDS011;37774;52.192;4.584;2022-08-19T02:34:58;22.48;;;13.07;;
51686;SDS011;37774;52.192;4.584;2022-08-19T02:37:25;26.30;;;12.38;;
51686;SDS011;37774;52.192;4.584;2022-08-19T02:40:09;24.63;;;12.93;;
51686;SDS011;37774;52.192;4.584;2022-08-19T02:42:36;32.20;;;14.15;;
51686;SDS011;37774;52.192;4.584;2022-08-19T02:45:04;36.10;;;15.00;;
51686;SDS011;37774;52.192;4.584;2022-08-19T02:47:32;37.25;;;16.58;;
51686;SDS011;37774;52.192;4.584;2022-08-19T02:50:00;41.00;;;17.85;;
51686;SDS011;37774;52.192;4.584;2022-08-19T02:52:27;45.05;;;19.75;;
51686;SDS011;37774;52.192;4.584;2022-08-19T02:54:54;49.63;;;21.52;;
51686;SDS011;37774;52.192;4.584;2022-08-19T02:57:22;53.70;;;22.00;;
51686;SDS011;37774;52.192;4.584;2022-08-19T02:59:49;47.67;;;20.98;;
51686;SDS011;37774;52.192;4.584;2022-08-19T03:02:16;64.22;;;25.27;;
51686;SDS011;37774;52.192;4.584;2022-08-19T03:04:44;62.50;;;24.08;;
51686;SDS011;37774;52.192;4.584;2022-08-19T03:07:12;63.25;;;24.13;;
51686;SDS011;37774;52.192;4.584;2022-08-19T03:09:40;70.05;;;25.02;;
51686;SDS011;37774;52.192;4.584;2022-08-19T03:12:08;65.47;;;25.83;;
51686;SDS011;37774;52.192;4.584;2022-08-19T03:14:35;64.50;;;25.83;;
51686;SDS011;37774;52.192;4.584;2022-08-19T03:17:03;70.65;;;24.02;;
51686;SDS011;37774;52.192;4.584;2022-08-19T03:19:30;60.42;;;24.08;;
51686;SDS011;37774;52.192;4.584;2022-08-19T03:21:59;64.88;;;23.20;;
51686;SDS011;37774;52.192;4.584;2022-08-19T03:24:26;73.28;;;22.95;;
51686;SDS011;37774;52.192;4.584;2022-08-19T03:26:53;71.32;;;24.10;;
51686;SDS011;37774;52.192;4.584;2022-08-19T03:29:22;61.63;;;24.67;;
51686;SDS011;37774;52.192;4.584;2022-08-19T03:31:49;63.92;;;25.02;;
51686;SDS011;37774;52.192;4.584;2022-08-19T03:34:18;71.80;;;23.60;;
51686;SDS011;37774;52.192;4.584;2022-08-19T03:36:47;62.47;;;24.35;;
51686;SDS011;37774;52.192;4.584;2022-08-19T03:39:15;58.33;;;22.15;;
51686;SDS011;37774;52.192;4.584;2022-08-19T03:41:43;65.60;;;23.70;;
51686;SDS011;37774;52.192;4.584;2022-08-19T03:44:11;62.08;;;24.85;;
51686;SDS011;37774;52.192;4.584;2022-08-19T03:46:38;60.92;;;25.60;;
51686;SDS011;37774;52.192;4.584;2022-08-19T03:49:05;65.55;;;24.45;;
51686;SDS011;37774;52.192;4.584;2022-08-19T03:51:33;59.90;;;23.23;;
51686;SDS011;37774;52.192;4.584;2022-08-19T03:54:02;67.40;;;24.65;;
51686;SDS011;37774;52.192;4.584;2022-08-19T03:56:32;60.47;;;23.23;;
51686;SDS011;37774;52.192;4.584;2022-08-19T03:58:59;68.32;;;24.58;;
51686;SDS011;37774;52.192;4.584;2022-08-19T04:01:27;65.30;;;25.55;;
51686;SDS011;37774;52.192;4.584;2022-08-19T04:03:55;73.57;;;24.77;;
51686;SDS011;37774;52.192;4.584;2022-08-19T04:06:23;62.85;;;23.83;;
51686;SDS011;37774;52.192;4.584;2022-08-19T04:08:52;66.78;;;24.13;;
51686;SDS011;37774;52.192;4.584;2022-08-19T04:11:20;66.60;;;23.27;;
51686;SDS011;37774;52.192;4.584;2022-08-19T04:13:50;67.07;;;24.05;;
51686;SDS011;37774;52.192;4.584;2022-08-19T04:16:19;63.17;;;23.67;;
51686;SDS011;37774;52.192;4.584;2022-08-19T04:18:47;67.97;;;23.55;;
51686;SDS011;37774;52.192;4.584;2022-08-19T04:21:15;62.63;;;22.98;;
51686;SDS011;37774;52.192;4.584;2022-08-19T04:23:44;69.00;;;24.02;;
51686;SDS011;37774;52.192;4.584;2022-08-19T04:26:12;65.43;;;23.13;;
51686;SDS011;37774;52.192;4.584;2022-08-19T04:28:41;75.05;;;24.42;;
51686;SDS011;37774;52.192;4.584;2022-08-19T04:31:11;67.30;;;24.33;;
51686;SDS011;37774;52.192;4.584;2022-08-19T04:33:40;75.38;;;25.63;;
51686;SDS011;37774;52.192;4.584;2022-08-19T04:36:07;73.03;;;26.58;;
51686;SDS011;37774;52.192;4.584;2022-08-19T04:38:35;63.83;;;23.38;;
51686;SDS011;37774;52.192;4.584;2022-08-19T04:41:02;70.25;;;25.05;;
51686;SDS011;37774;52.192;4.584;2022-08-19T04:43:47;80.93;;;26.08;;
51686;SDS011;37774;52.192;4.584;2022-08-19T04:46:15;97.55;;;27.75;;
51686;SDS011;37774;52.192;4.584;2022-08-19T04:48:42;94.40;;;29.00;;
51686;SDS011;37774;52.192;4.584;2022-08-19T04:51:09;98.60;;;33.50;;
51686;SDS011;37774;52.192;4.584;2022-08-19T04:53:39;125.25;;;32.85;;
51686;SDS011;37774;52.192;4.584;2022-08-19T04:56:07;116.45;;;32.75;;
51686;SDS011;37774;52.192;4.584;2022-08-19T04:58:35;119.88;;;34.33;;
51686;SDS011;37774;52.192;4.584;2022-08-19T05:01:04;103.10;;;32.45;;
51686;SDS011;37774;52.192;4.584;2022-08-19T05:03:32;104.57;;;30.58;;
51686;SDS011;37774;52.192;4.584;2022-08-19T05:06:03;102.35;;;31.63;;
51686;SDS011;37774;52.192;4.584;2022-08-19T05:08:32;101.63;;;30.52;;
51686;SDS011;37774;52.192;4.584;2022-08-19T05:11:00;118.38;;;31.85;;
51686;SDS011;37774;52.192;4.584;2022-08-19T05:13:28;102.65;;;31.85;;
51686;SDS011;37774;52.192;4.584;2022-08-19T05:15:55;99.13;;;31.20;;
51686;SDS011;37774;52.192;4.584;2022-08-19T05:18:22;106.65;;;32.60;;
51686;SDS011;37774;52.192;4.584;2022-08-19T05:21:09;113.40;;;31.98;;
51686;SDS011;37774;52.192;4.584;2022-08-19T05:24:00;113.30;;;32.80;;
51686;SDS011;37774;52.192;4.584;2022-08-19T05:26:27;103.35;;;31.85;;
51686;SDS011;37774;52.192;4.584;2022-08-19T05:28:54;104.20;;;32.03;;
51686;SDS011;37774;52.192;4.584;2022-08-19T05:31:21;112.90;;;34.90;;
51686;SDS011;37774;52.192;4.584;2022-08-19T05:33:48;114.93;;;33.38;;
51686;SDS011;37774;52.192;4.584;2022-08-19T05:36:16;110.18;;;30.67;;
51686;SDS011;37774;52.192;4.584;2022-08-19T05:38:45;110.07;;;32.40;;
51686;SDS011;37774;52.192;4.584;2022-08-19T05:41:13;107.03;;;32.58;;
51686;SDS011;37774;52.192;4.584;2022-08-19T05:43:41;106.93;;;32.33;;
51686;SDS011;37774;52.192;4.584;2022-08-19T05:46:08;103.40;;;30.92;;
51686;SDS011;37774;52.192;4.584;2022-08-19T05:48:44;112.13;;;32.60;;
51686;SDS011;37774;52.192;4.584;2022-08-19T05:51:12;104.68;;;32.15;;
51686;SDS011;37774;52.192;4.584;2022-08-19T05:53:40;101.35;;;31.70;;
51686;SDS011;37774;52.192;4.584;2022-08-19T05:56:07;105.63;;;31.38;;
51686;SDS011;37774;52.192;4.584;2022-08-19T05:58:36;109.03;;;33.00;;
51686;SDS011;37774;52.192;4.584;2022-08-19T06:01:09;109.70;;;32.80;;
51686;SDS011;37774;52.192;4.584;2022-08-19T06:03:37;112.60;;;30.67;;
51686;SDS011;37774;52.192;4.584;2022-08-19T06:06:05;100.22;;;31.70;;
51686;SDS011;37774;52.192;4.584;2022-08-19T06:08:33;90.88;;;29.30;;
51686;SDS011;37774;52.192;4.584;2022-08-19T06:11:12;92.75;;;29.38;;
51686;SDS011;37774;52.192;4.584;2022-08-19T06:13:41;99.55;;;27.90;;
51686;SDS011;37774;52.192;4.584;2022-08-19T06:16:09;91.78;;;29.13;;
51686;SDS011;37774;52.192;4.584;2022-08-19T06:18:36;94.80;;;28.40;;
51686;SDS011;37774;52.192;4.584;2022-08-19T06:21:02;100.50;;;32.75;;
51686;SDS011;37774;52.192;4.584;2022-08-19T06:23:30;104.13;;;29.65;;
51686;SDS011;37774;52.192;4.584;2022-08-19T06:25:56;84.85;;;26.65;;
51686;SDS011;37774;52.192;4.584;2022-08-19T06:28:25;92.40;;;28.27;;
51686;SDS011;37774;52.192;4.584;2022-08-19T06:30:51;80.70;;;28.77;;
51686;SDS011;37774;52.192;4.584;2022-08-19T06:33:18;78.30;;;26.20;;
51686;SDS011;37774;52.192;4.584;2022-08-19T06:35:45;92.50;;;28.23;;
51686;SDS011;37774;52.192;4.584;2022-08-19T06:38:12;72.88;;;26.60;;
51686;SDS011;37774;52.192;4.584;2022-08-19T06:40:39;92.03;;;26.65;;
51686;SDS011;37774;52.192;4.584;2022-08-19T06:43:05;75.70;;;27.65;;
51686;SDS011;37774;52.192;4.584;2022-08-19T06:45:33;64.38;;;25.55;;
51686;SDS011;37774;52.192;4.584;2022-08-19T06:48:03;72.57;;;24.85;;
51686;SDS011;37774;52.192;4.584;2022-08-19T06:50:30;58.03;;;22.88;;
51686;SDS011;37774;52.192;4.584;2022-08-19T06:52:57;62.90;;;22.42;;
51686;SDS011;37774;52.192;4.584;2022-08-19T06:55:24;60.25;;;21.60;;
51686;SDS011;37774;52.192;4.584;2022-08-19T06:57:53;57.15;;;22.80;;
51686;SDS011;37774;52.192;4.584;2022-08-19T07:00:20;60.63;;;22.05;;
51686;SDS011;37774;52.192;4.584;2022-08-19T07:02:48;62.60;;;21.80;;
51686;SDS011;37774;52.192;4.584;2022-08-19T07:05:15;60.17;;;22.30;;
51686;SDS011;37774;52.192;4.584;2022-08-19T07:07:42;56.90;;;21.00;;
51686;SDS011;37774;52.192;4.584;2022-08-19T07:10:09;44.65;;;20.42;;
51686;SDS011;37774;52.192;4.584;2022-08-19T07:12:36;55.40;;;19.60;;
51686;SDS011;37774;52.192;4.584;2022-08-19T07:15:05;52.60;;;19.75;;
51686;SDS011;37774;52.192;4.584;2022-08-19T07:17:33;50.05;;;18.58;;
51686;SDS011;37774;52.192;4.584;2022-08-19T07:20:04;51.00;;;18.73;;
51686;SDS011;37774;52.192;4.584;2022-08-19T07:22:33;43.88;;;17.45;;
51686;SDS011;37774;52.192;4.584;2022-08-19T07:24:59;42.10;;;17.35;;
51686;SDS011;37774;52.192;4.584;2022-08-19T07:27:28;51.25;;;17.52;;
51686;SDS011;37774;52.192;4.584;2022-08-19T07:29:55;45.35;;;16.98;;
51686;SDS011;37774;52.192;4.584;2022-08-19T07:32:22;42.17;;;16.60;;
51686;SDS011;37774;52.192;4.584;2022-08-19T07:34:50;44.55;;;16.20;;
51686;SDS011;37774;52.192;4.584;2022-08-19T07:37:19;48.60;;;17.27;;
51686;SDS011;37774;52.192;4.584;2022-08-19T07:39:46;38.13;;;15.45;;
51686;SDS011;37774;52.192;4.584;2022-08-19T07:42:12;39.50;;;16.67;;
51686;SDS011;37774;52.192;4.584;2022-08-19T07:44:40;34.03;;;12.85;;
51686;SDS011;37774;52.192;4.584;2022-08-19T07:47:08;27.77;;;12.57;;
51686;SDS011;37774;52.192;4.584;2022-08-19T07:49:34;28.92;;;12.32;;
51686;SDS011;37774;52.192;4.584;2022-08-19T07:52:03;22.00;;;9.25;;
51686;SDS011;37774;52.192;4.584;2022-08-19T07:54:33;20.25;;;9.73;;
51686;SDS011;37774;52.192;4.584;2022-08-19T07:57:02;25.13;;;11.48;;
51686;SDS011;37774;52.192;4.584;2022-08-19T07:59:30;18.83;;;9.77;;
51686;SDS011;37774;52.192;4.584;2022-08-19T08:01:57;20.17;;;8.45;;
51686;SDS011;37774;52.192;4.584;2022-08-19T08:04:25;27.15;;;8.18;;
51686;SDS011;37774;52.192;4.584;2022-08-19T08:07:09;11.35;;;6.97;;
51686;SDS011;37774;52.192;4.584;2022-08-19T08:09:55;16.05;;;6.53;;
51686;SDS011;37774;52.192;4.584;2022-08-19T08:12:23;14.63;;;6.50;;
51686;SDS011;37774;52.192;4.584;2022-08-19T08:14:54;25.38;;;6.75;;
51686;SDS011;37774;52.192;4.584;2022-08-19T08:17:24;24.08;;;6.22;;
51686;SDS011;37774;52.192;4.584;2022-08-19T08:19:53;18.60;;;6.25;;
51686;SDS011;37774;52.192;4.584;2022-08-19T08:22:21;14.30;;;5.82;;
51686;SDS011;37774;52.192;4.584;2022-08-19T08:25:05;9.13;;;5.03;;
51686;SDS011;37774;52.192;4.584;2022-08-19T08:27:35;16.48;;;5.43;;
51686;SDS011;37774;52.192;4.584;2022-08-19T08:30:05;15.10;;;5.47;;
51686;SDS011;37774;52.192;4.584;2022-08-19T08:32:34;16.05;;;5.65;;
51686;SDS011;37774;52.192;4.584;2022-08-19T08:35:02;20.42;;;6.13;;
51686;SDS011;37774;52.192;4.584;2022-08-19T08:37:29;18.23;;;6.18;;
51686;SDS011;37774;52.192;4.584;2022-08-19T08:39:56;20.92;;;7.03;;
51686;SDS011;37774;52.192;4.584;2022-08-19T08:42:26;12.65;;;6.43;;
51686;SDS011;37774;52.192;4.584;2022-08-19T08:45:00;14.90;;;7.30;;
51686;SDS011;37774;52.192;4.584;2022-08-19T08:47:31;9.20;;;6.00;;
51686;SDS011;37774;52.192;4.584;2022-08-19T08:50:04;14.38;;;7.18;;
51686;SDS011;37774;52.192;4.584;2022-08-19T08:52:36;12.93;;;5.70;;
51686;SDS011;37774;52.192;4.584;2022-08-19T08:55:09;11.13;;;6.10;;
51686;SDS011;37774;52.192;4.584;2022-08-19T08:57:44;10.95;;;5.25;;
51686;SDS011;37774;52.192;4.584;2022-08-19T09:00:20;12.07;;;5.32;;
51686;SDS011;37774;52.192;4.584;2022-08-19T09:02:51;10.10;;;4.53;;
51686;SDS011;37774;52.192;4.584;2022-08-19T09:05:18;12.80;;;4.28;;
51686;SDS011;37774;52.192;4.584;2022-08-19T09:10:32;9.65;;;4.43;;
51686;SDS011;37774;52.192;4.584;2022-08-19T09:13:07;16.33;;;4.38;;
51686;SDS011;37774;52.192;4.584;2022-08-19T09:15:43;10.20;;;4.35;;
51686;SDS011;37774;52.192;4.584;2022-08-19T09:18:14;12.50;;;4.47;;
51686;SDS011;37774;52.192;4.584;2022-08-19T09:20:42;9.43;;;4.47;;
51686;SDS011;37774;52.192;4.584;2022-08-19T09:23:09;14.38;;;4.88;;
51686;SDS011;37774;52.192;4.584;2022-08-19T09:25:36;13.13;;;3.72;;
51686;SDS011;37774;52.192;4.584;2022-08-19T09:28:06;14.45;;;5.13;;
51686;SDS011;37774;52.192;4.584;2022-08-19T09:30:34;11.23;;;4.78;;
51686;SDS011;37774;52.192;4.584;2022-08-19T09:33:05;9.35;;;3.85;;
51686;SDS011;37774;52.192;4.584;2022-08-19T09:35:32;15.93;;;4.45;;
51686;SDS011;37774;52.192;4.584;2022-08-19T09:38:00;8.27;;;4.07;;
51686;SDS011;37774;52.192;4.584;2022-08-19T09:40:27;7.15;;;4.22;;
51686;SDS011;37774;52.192;4.584;2022-08-19T09:42:55;12.48;;;4.50;;
51686;SDS011;37774;52.192;4.584;2022-08-19T09:45:23;15.40;;;3.55;;
51686;SDS011;37774;52.192;4.584;2022-08-19T09:47:51;9.35;;;3.55;;
51686;SDS011;37774;52.192;4.584;2022-08-19T09:50:19;11.50;;;4.22;;
51686;SDS011;37774;52.192;4.584;2022-08-19T09:52:47;6.82;;;3.50;;
51686;SDS011;37774;52.192;4.584;2022-08-19T09:55:14;11.23;;;3.33;;
51686;SDS011;37774;52.192;4.584;2022-08-19T09:57:41;5.90;;;2.70;;
51686;SDS011;37774;52.192;4.584;2022-08-19T10:00:08;8.70;;;3.20;;
51686;SDS011;37774;52.192;4.584;2022-08-19T10:02:37;13.10;;;3.45;;
51686;SDS011;37774;52.192;4.584;2022-08-19T10:05:04;10.57;;;3.20;;
51686;SDS011;37774;52.192;4.584;2022-08-19T10:07:51;7.60;;;3.55;;
51686;SDS011;37774;52.192;4.584;2022-08-19T10:10:18;7.90;;;3.30;;
51686;SDS011;37774;52.192;4.584;2022-08-19T10:12:44;9.32;;;3.15;;
51686;SDS011;37774;52.192;4.584;2022-08-19T10:15:12;6.65;;;3.05;;
51686;SDS011;37774;52.192;4.584;2022-08-19T10:17:41;8.43;;;2.50;;
51686;SDS011;37774;52.192;4.584;2022-08-19T10:20:08;9.40;;;2.92;;
51686;SDS011;37774;52.192;4.584;2022-08-19T10:22:36;11.18;;;3.03;;
51686;SDS011;37774;52.192;4.584;2022-08-19T10:25:04;8.55;;;3.08;;
51686;SDS011;37774;52.192;4.584;2022-08-19T10:27:32;5.50;;;2.63;;
51686;SDS011;37774;52.192;4.584;2022-08-19T10:29:59;9.23;;;3.08;;
51686;SDS011;37774;52.192;4.584;2022-08-19T10:32:26;14.30;;;2.85;;
51686;SDS011;37774;52.192;4.584;2022-08-19T10:34:56;7.65;;;2.63;;
51686;SDS011;37774;52.192;4.584;2022-08-19T10:37:22;6.13;;;2.90;;
51686;SDS011;37774;52.192;4.584;2022-08-19T10:39:49;8.98;;;2.63;;
51686;SDS011;37774;52.192;4.584;2022-08-19T10:42:16;7.32;;;3.10;;
51686;SDS011;37774;52.192;4.584;2022-08-19T10:44:44;7.47;;;2.58;;
51686;SDS011;37774;52.192;4.584;2022-08-19T10:47:13;7.30;;;2.70;;
51686;SDS011;37774;52.192;4.584;2022-08-19T10:49:40;5.72;;;2.53;;
51686;SDS011;37774;52.192;4.584;2022-08-19T10:52:22;8.63;;;2.47;;
51686;SDS011;37774;52.192;4.584;2022-08-19T10:55:02;10.20;;;2.35;;
51686;SDS011;37774;52.192;4.584;2022-08-19T10:57:47;7.97;;;2.20;;
51686;SDS011;37774;52.192;4.584;2022-08-19T11:00:15;8.52;;;1.88;;
51686;SDS011;37774;52.192;4.584;2022-08-19T11:02:42;8.30;;;2.47;;
51686;SDS011;37774;52.192;4.584;2022-08-19T11:05:09;7.10;;;2.03;;
51686;SDS011;37774;52.192;4.584;2022-08-19T11:07:38;4.13;;;1.67;;
51686;SDS011;37774;52.192;4.584;2022-08-19T11:10:06;2.72;;;1.30;;
51686;SDS011;37774;52.192;4.584;2022-08-19T11:12:36;2.30;;;1.48;;
51686;SDS011;37774;52.192;4.584;2022-08-19T11:15:04;6.93;;;2.20;;
51686;SDS011;37774;52.192;4.584;2022-08-19T11:17:32;8.00;;;2.30;;
51686;SDS011;37774;52.192;4.584;2022-08-19T11:19:59;5.07;;;1.30;;
51686;SDS011;37774;52.192;4.584;2022-08-19T11:22:30;2.60;;;1.60;;
51686;SDS011;37774;52.192;4.584;2022-08-19T11:24:58;7.05;;;1.30;;
51686;SDS011;37774;52.192;4.584;2022-08-19T11:27:25;3.28;;;1.20;;
51686;SDS011;37774;52.192;4.584;2022-08-19T11:29:52;6.85;;;1.50;;
51686;SDS011;37774;52.192;4.584;2022-08-19T11:32:19;6.72;;;1.60;;
51686;SDS011;37774;52.192;4.584;2022-08-19T11:34:46;4.38;;;1.40;;
51686;SDS011;37774;52.192;4.584;2022-08-19T11:37:12;2.58;;;1.08;;
51686;SDS011;37774;52.192;4.584;2022-08-19T11:39:39;10.52;;;1.50;;
51686;SDS011;37774;52.192;4.584;2022-08-19T11:42:07;6.45;;;1.50;;
51686;SDS011;37774;52.192;4.584;2022-08-19T11:44:48;2.60;;;1.50;;
51686;SDS011;37774;52.192;4.584;2022-08-19T11:47:15;2.63;;;1.48;;
51686;SDS011;37774;52.192;4.584;2022-08-19T11:49:41;2.75;;;0.85;;
51686;SDS011;37774;52.192;4.584;2022-08-19T11:52:08;4.25;;;1.17;;
51686;SDS011;37774;52.192;4.584;2022-08-19T11:54:35;4.22;;;1.15;;
51686;SDS011;37774;52.192;4.584;2022-08-19T11:57:02;4.82;;;1.30;;
51686;SDS011;37774;52.192;4.584;2022-08-19T11:59:31;1.42;;;0.80;;
51686;SDS011;37774;52.192;4.584;2022-08-19T12:01:58;4.70;;;1.48;;
51686;SDS011;37774;52.192;4.584;2022-08-19T12:04:25;1.98;;;1.27;;
51686;SDS011;37774;52.192;4.584;2022-08-19T12:06:52;3.72;;;1.08;;
51686;SDS011;37774;52.192;4.584;2022-08-19T12:09:18;7.60;;;1.38;;
51686;SDS011;37774;52.192;4.584;2022-08-19T12:11:47;2.20;;;0.98;;
51686;SDS011;37774;52.192;4.584;2022-08-19T12:14:14;6.20;;;1.35;;
51686;SDS011;37774;52.192;4.584;2022-08-19T12:16:43;7.05;;;0.90;;
51686;SDS011;37774;52.192;4.584;2022-08-19T12:19:11;3.42;;;1.42;;
51686;SDS011;37774;52.192;4.584;2022-08-19T12:21:38;3.83;;;1.23;;
51686;SDS011;37774;52.192;4.584;2022-08-19T12:24:05;4.55;;;1.45;;
51686;SDS011;37774;52.192;4.584;2022-08-19T12:26:33;2.65;;;1.40;;
51686;SDS011;37774;52.192;4.584;2022-08-19T12:29:00;2.75;;;1.10;;
51686;SDS011;37774;52.192;4.584;2022-08-19T12:31:27;4.05;;;1.35;;
51686;SDS011;37774;52.192;4.584;2022-08-19T12:33:56;4.22;;;1.35;;
51686;SDS011;37774;52.192;4.584;2022-08-19T12:36:23;4.28;;;1.30;;
51686;SDS011;37774;52.192;4.584;2022-08-19T12:38:50;4.15;;;1.20;;
51686;SDS011;37774;52.192;4.584;2022-08-19T12:41:17;4.00;;;1.20;;
51686;SDS011;37774;52.192;4.584;2022-08-19T12:43:47;4.20;;;1.13;;
51686;SDS011;37774;52.192;4.584;2022-08-19T12:46:15;2.42;;;1.23;;
51686;SDS011;37774;52.192;4.584;2022-08-19T12:48:43;2.47;;;1.02;;
51686;SDS011;37774;52.192;4.584;2022-08-19T12:51:12;2.25;;;1.20;;
51686;SDS011;37774;52.192;4.584;2022-08-19T12:53:41;2.67;;;1.20;;
51686;SDS011;37774;52.192;4.584;2022-08-19T12:56:09;1.38;;;0.95;;
51686;SDS011;37774;52.192;4.584;2022-08-19T12:58:39;2.78;;;1.20;;
51686;SDS011;37774;52.192;4.584;2022-08-19T13:01:07;4.03;;;1.20;;
51686;SDS011;37774;52.192;4.584;2022-08-19T13:03:35;2.85;;;0.95;;
51686;SDS011;37774;52.192;4.584;2022-08-19T13:06:02;1.63;;;1.27;;
51686;SDS011;37774;52.192;4.584;2022-08-19T13:08:31;2.08;;;1.10;;
51686;SDS011;37774;52.192;4.584;2022-08-19T13:11:00;2.95;;;1.40;;
51686;SDS011;37774;52.192;4.584;2022-08-19T13:13:33;1.13;;;0.60;;
51686;SDS011;37774;52.192;4.584;2022-08-19T13:15:59;4.18;;;1.08;;
51686;SDS011;37774;52.192;4.584;2022-08-19T13:18:28;1.73;;;1.13;;
51686;SDS011;37774;52.192;4.584;2022-08-19T13:20:54;2.58;;;1.30;;
51686;SDS011;37774;52.192;4.584;2022-08-19T13:23:21;1.70;;;1.38;;
51686;SDS011;37774;52.192;4.584;2022-08-19T13:25:56;2.88;;;1.33;;
51686;SDS011;37774;52.192;4.584;2022-08-19T13:28:23;1.25;;;1.00;;
51686;SDS011;37774;52.192;4.584;2022-08-19T13:30:50;5.25;;;1.50;;
51686;SDS011;37774;52.192;4.584;2022-08-19T13:33:34;1.50;;;1.02;;
51686;SDS011;37774;52.192;4.584;2022-08-19T13:36:01;3.80;;;1.23;;
51686;SDS011;37774;52.192;4.584;2022-08-19T13:38:32;1.88;;;1.23;;
51686;SDS011;37774;52.192;4.584;2022-08-19T13:41:04;1.70;;;1.00;;
51686;SDS011;37774;52.192;4.584;2022-08-19T13:43:32;2.28;;;1.13;;
51686;SDS011;37774;52.192;4.584;2022-08-19T13:45:59;9.63;;;1.55;;
51686;SDS011;37774;52.192;4.584;2022-08-19T13:48:28;5.13;;;1.40;;
51686;SDS011;37774;52.192;4.584;2022-08-19T13:50:56;3.25;;;1.30;;
51686;SDS011;37774;52.192;4.584;2022-08-19T13:53:23;3.45;;;1.50;;
51686;SDS011;37774;52.192;4.584;2022-08-19T13:55:50;4.25;;;1.63;;
51686;SDS011;37774;52.192;4.584;2022-08-19T13:58:20;3.22;;;1.27;;
51686;SDS011;37774;52.192;4.584;2022-08-19T14:00:46;3.80;;;1.25;;
51686;SDS011;37774;52.192;4.584;2022-08-19T14:03:14;3.58;;;1.13;;
51686;SDS011;37774;52.192;4.584;2022-08-19T14:05:41;4.50;;;1.10;;
51686;SDS011;37774;52.192;4.584;2022-08-19T14:08:08;4.40;;;0.90;;
51686;SDS011;37774;52.192;4.584;2022-08-19T14:10:35;5.93;;;1.40;;
51686;SDS011;37774;52.192;4.584;2022-08-19T14:13:09;5.97;;;1.50;;
51686;SDS011;37774;52.192;4.584;2022-08-19T14:15:37;4.25;;;1.75;;
51686;SDS011;37774;52.192;4.584;2022-08-19T14:18:04;3.00;;;1.30;;
51686;SDS011;37774;52.192;4.584;2022-08-19T14:20:33;3.20;;;1.35;;
51686;SDS011;37774;52.192;4.584;2022-08-19T14:23:00;6.03;;;1.40;;
51686;SDS011;37774;52.192;4.584;2022-08-19T14:25:29;2.10;;;1.40;;
51686;SDS011;37774;52.192;4.584;2022-08-19T14:27:56;3.47;;;1.08;;
51686;SDS011;37774;52.192;4.584;2022-08-19T14:30:24;4.22;;;1.20;;
51686;SDS011;37774;52.192;4.584;2022-08-19T14:32:55;3.47;;;1.35;;
51686;SDS011;37774;52.192;4.584;2022-08-19T14:35:23;3.90;;;1.17;;
51686;SDS011;37774;52.192;4.584;2022-08-19T14:37:51;4.25;;;1.42;;
51686;SDS011;37774;52.192;4.584;2022-08-19T14:40:21;2.03;;;1.30;;
51686;SDS011;37774;52.192;4.584;2022-08-19T14:42:51;6.93;;;1.60;;
51686;SDS011;37774;52.192;4.584;2022-08-19T14:45:20;2.08;;;1.35;;